sensor_id;sensor_type;location;lat;lon;timestamp;pressure;altitude;pressure_sealevel;temperature;humidity
79534;BME280;68982;52.160;6.736;2024-03-02T00:00:10;99728.28;;;6.61;100.00
79534;BME280;68982;52.160;6.736;2024-03-02T00:02:43;99724.84;;;6.67;100.00
79534;BME280;68982;52.160;6.736;2024-03-02T00:05:13;99727.78;;;6.72;100.00
79534;BME280;68982;52.160;6.736;2024-03-02T00:07:44;99730.94;;;6.82;100.00
79534;BME280;68982;52.160;6.736;2024-03-02T00:10:11;99731.41;;;6.86;100.00
79534;BME280;68982;52.160;6.736;2024-03-02T00:12:40;99726.88;;;6.87;100.00
79534;BME280;68982;52.160;6.736;2024-03-02T00:18:02;99719.47;;;6.89;100.00
79534;BME280;68982;52.160;6.736;2024-03-02T00:20:28;99717.19;;;6.85;100.00
79534;BME280;68982;52.160;6.736;2024-03-02T00:23:02;99729.81;;;6.92;100.00
79534;BME280;68982;52.160;6.736;2024-03-02T00:25:39;99727.97;;;6.92;100.00
79534;BME280;68982;52.160;6.736;2024-03-02T00:28:26;99726.94;;;6.93;100.00
79534;BME280;68982;52.160;6.736;2024-03-02T00:31:13;99738.94;;;6.97;100.00
79534;BME280;68982;52.160;6.736;2024-03-02T00:33:44;99732.56;;;6.98;100.00
79534;BME280;68982;52.160;6.736;2024-03-02T00:36:11;99721.22;;;6.96;100.00
79534;BME280;68982;52.160;6.736;2024-03-02T00:38:48;99721.84;;;6.98;100.00
79534;BME280;68982;52.160;6.736;2024-03-02T00:41:17;99708.63;;;6.97;100.00
79534;BME280;68982;52.160;6.736;2024-03-02T00:44:00;99700.59;;;6.97;100.00
79534;BME280;68982;52.160;6.736;2024-03-02T00:46:28;99696.25;;;6.96;100.00
79534;BME280;68982;52.160;6.736;2024-03-02T00:48:59;99692.56;;;6.97;100.00
79534;BME280;68982;52.160;6.736;2024-03-02T00:51:26;99696.69;;;6.99;100.00
79534;BME280;68982;52.160;6.736;2024-03-02T00:53:53;99696.50;;;7.01;100.00
79534;BME280;68982;52.160;6.736;2024-03-02T00:56:21;99693.44;;;7.04;100.00
79534;BME280;68982;52.160;6.736;2024-03-02T00:58:47;99702.16;;;7.13;100.00
79534;BME280;68982;52.160;6.736;2024-03-02T01:01:12;99706.06;;;7.10;100.00
79534;BME280;68982;52.160;6.736;2024-03-02T01:03:38;99705.88;;;7.12;100.00
79534;BME280;68982;52.160;6.736;2024-03-02T01:06:04;99701.97;;;7.14;100.00
79534;BME280;68982;52.160;6.736;2024-03-02T01:08:29;99698.91;;;7.17;100.00
79534;BME280;68982;52.160;6.736;2024-03-02T01:10:55;99700.75;;;7.17;100.00
79534;BME280;68982;52.160;6.736;2024-03-02T01:13:22;99705.09;;;7.18;100.00
79534;BME280;68982;52.160;6.736;2024-03-02T01:15:47;99690.84;;;7.17;100.00
79534;BME280;68982;52.160;6.736;2024-03-02T01:18:13;99691.69;;;7.18;100.00
79534;BME280;68982;52.160;6.736;2024-03-02T01:20:38;99687.75;;;7.14;100.00
79534;BME280;68982;52.160;6.736;2024-03-02T01:23:03;99678.09;;;7.19;100.00
79534;BME280;68982;52.160;6.736;2024-03-02T01:25:29;99686.72;;;7.15;100.00
79534;BME280;68982;52.160;6.736;2024-03-02T01:27:54;99679.72;;;7.14;100.00
79534;BME280;68982;52.160;6.736;2024-03-02T01:30:19;99681.34;;;7.15;100.00
79534;BME280;68982;52.160;6.736;2024-03-02T01:32:45;99669.81;;;7.14;100.00
79534;BME280;68982;52.160;6.736;2024-03-02T01:35:10;99673.13;;;7.16;100.00
79534;BME280;68982;52.160;6.736;2024-03-02T01:37:35;99674.97;;;7.16;100.00
79534;BME280;68982;52.160;6.736;2024-03-02T01:40:01;99672.09;;;7.17;100.00
79534;BME280;68982;52.160;6.736;2024-03-02T01:42:27;99672.13;;;7.24;100.00
79534;BME280;68982;52.160;6.736;2024-03-02T01:44:53;99676.22;;;7.20;100.00
79534;BME280;68982;52.160;6.736;2024-03-02T01:47:18;99676.44;;;7.18;100.00
79534;BME280;68982;52.160;6.736;2024-03-02T01:49:43;99673.75;;;7.18;100.00
79534;BME280;68982;52.160;6.736;2024-03-02T01:52:09;99678.03;;;7.13;100.00
79534;BME280;68982;52.160;6.736;2024-03-02T01:54:34;99671.09;;;7.18;100.00
79534;BME280;68982;52.160;6.736;2024-03-02T01:56:59;99666.31;;;7.14;100.00
79534;BME280;68982;52.160;6.736;2024-03-02T01:59:25;99666.50;;;7.12;100.00
79534;BME280;68982;52.160;6.736;2024-03-02T02:01:50;99664.41;;;7.08;100.00
79534;BME280;68982;52.160;6.736;2024-03-02T02:04:16;99663.34;;;7.09;100.00
79534;BME280;68982;52.160;6.736;2024-03-02T02:06:44;99662.72;;;7.06;100.00
79534;BME280;68982;52.160;6.736;2024-03-02T02:09:09;99663.00;;;7.12;100.00
79534;BME280;68982;52.160;6.736;2024-03-02T02:11:34;99668.53;;;7.10;100.00
79534;BME280;68982;52.160;6.736;2024-03-02T02:14:00;99669.00;;;7.14;100.00
79534;BME280;68982;52.160;6.736;2024-03-02T02:16:25;99664.22;;;7.16;100.00
79534;BME280;68982;52.160;6.736;2024-03-02T02:18:50;99669.59;;;7.16;100.00
79534;BME280;68982;52.160;6.736;2024-03-02T02:21:16;99667.38;;;7.19;100.00
79534;BME280;68982;52.160;6.736;2024-03-02T02:23:41;99654.38;;;7.16;100.00
79534;BME280;68982;52.160;6.736;2024-03-02T02:26:11;99671.94;;;7.25;100.00
79534;BME280;68982;52.160;6.736;2024-03-02T02:28:37;99664.28;;;7.22;100.00
79534;BME280;68982;52.160;6.736;2024-03-02T02:31:02;99672.78;;;7.26;100.00
79534;BME280;68982;52.160;6.736;2024-03-02T02:33:28;99680.63;;;7.28;100.00
79534;BME280;68982;52.160;6.736;2024-03-02T02:35:54;99677.13;;;7.27;100.00
79534;BME280;68982;52.160;6.736;2024-03-02T02:38:19;99670.31;;;7.31;100.00
79534;BME280;68982;52.160;6.736;2024-03-02T02:40:45;99673.28;;;7.36;100.00
79534;BME280;68982;52.160;6.736;2024-03-02T02:43:10;99668.50;;;7.32;100.00
79534;BME280;68982;52.160;6.736;2024-03-02T02:45:35;99678.63;;;7.36;100.00
79534;BME280;68982;52.160;6.736;2024-03-02T02:48:01;99675.09;;;7.36;100.00
79534;BME280;68982;52.160;6.736;2024-03-02T02:50:28;99679.91;;;7.40;100.00
79534;BME280;68982;52.160;6.736;2024-03-02T02:52:53;99678.81;;;7.35;100.00
79534;BME280;68982;52.160;6.736;2024-03-02T02:55:18;99673.47;;;7.35;100.00
79534;BME280;68982;52.160;6.736;2024-03-02T02:57:44;99673.50;;;7.41;100.00
79534;BME280;68982;52.160;6.736;2024-03-02T03:00:13;99682.22;;;7.50;100.00
79534;BME280;68982;52.160;6.736;2024-03-02T03:02:45;99656.44;;;7.56;100.00
79534;BME280;68982;52.160;6.736;2024-03-02T03:05:13;99664.03;;;7.80;100.00
79534;BME280;68982;52.160;6.736;2024-03-02T03:07:39;99665.31;;;7.91;100.00
79534;BME280;68982;52.160;6.736;2024-03-02T03:10:05;99664.50;;;7.97;99.67
79534;BME280;68982;52.160;6.736;2024-03-02T03:12:32;99661.81;;;7.97;99.75
79534;BME280;68982;52.160;6.736;2024-03-02T03:14:57;99663.28;;;8.00;99.39
79534;BME280;68982;52.160;6.736;2024-03-02T03:17:23;99657.09;;;7.99;98.79
79534;BME280;68982;52.160;6.736;2024-03-02T03:19:49;99657.50;;;7.96;99.38
79534;BME280;68982;52.160;6.736;2024-03-02T03:22:14;99654.16;;;7.87;99.67
79534;BME280;68982;52.160;6.736;2024-03-02T03:24:39;99668.59;;;7.86;99.33
79534;BME280;68982;52.160;6.736;2024-03-02T03:27:05;99672.47;;;7.77;100.00
79534;BME280;68982;52.160;6.736;2024-03-02T03:29:30;99670.56;;;7.71;100.00
79534;BME280;68982;52.160;6.736;2024-03-02T03:31:55;99682.97;;;7.72;100.00
79534;BME280;68982;52.160;6.736;2024-03-02T03:34:21;99680.06;;;7.67;100.00
79534;BME280;68982;52.160;6.736;2024-03-02T03:36:46;99669.91;;;7.62;100.00
79534;BME280;68982;52.160;6.736;2024-03-02T03:39:11;99678.53;;;7.58;100.00
79534;BME280;68982;52.160;6.736;2024-03-02T03:41:37;99682.06;;;7.58;100.00
79534;BME280;68982;52.160;6.736;2024-03-02T03:44:02;99671.34;;;7.58;100.00
79534;BME280;68982;52.160;6.736;2024-03-02T03:46:28;99678.28;;;7.46;100.00
79534;BME280;68982;52.160;6.736;2024-03-02T03:48:54;99681.94;;;7.38;100.00
79534;BME280;68982;52.160;6.736;2024-03-02T03:51:21;99673.06;;;7.38;100.00
79534;BME280;68982;52.160;6.736;2024-03-02T03:53:47;99676.13;;;7.35;100.00
79534;BME280;68982;52.160;6.736;2024-03-02T03:56:12;99688.97;;;7.39;100.00
79534;BME280;68982;52.160;6.736;2024-03-02T03:58:38;99682.59;;;7.40;100.00
79534;BME280;68982;52.160;6.736;2024-03-02T04:01:03;99684.41;;;7.40;100.00
79534;BME280;68982;52.160;6.736;2024-03-02T04:03:29;99683.19;;;7.42;100.00
79534;BME280;68982;52.160;6.736;2024-03-02T04:05:55;99692.31;;;7.48;100.00
79534;BME280;68982;52.160;6.736;2024-03-02T04:08:20;99692.78;;;7.52;100.00
79534;BME280;68982;52.160;6.736;2024-03-02T04:10:46;99684.72;;;7.52;100.00
79534;BME280;68982;52.160;6.736;2024-03-02T04:13:11;99685.34;;;7.54;100.00
79534;BME280;68982;52.160;6.736;2024-03-02T04:15:37;99688.91;;;7.61;100.00
79534;BME280;68982;52.160;6.736;2024-03-02T04:18:02;99693.63;;;7.59;100.00
79534;BME280;68982;52.160;6.736;2024-03-02T04:20:28;99695.28;;;7.60;100.00
79534;BME280;68982;52.160;6.736;2024-03-02T04:22:53;99695.91;;;7.62;100.00
79534;BME280;68982;52.160;6.736;2024-03-02T04:25:18;99704.63;;;7.71;100.00
79534;BME280;68982;52.160;6.736;2024-03-02T04:27:45;99710.78;;;7.64;100.00
79534;BME280;68982;52.160;6.736;2024-03-02T04:30:10;99705.22;;;7.66;100.00
79534;BME280;68982;52.160;6.736;2024-03-02T04:32:36;99700.63;;;7.60;100.00
79534;BME280;68982;52.160;6.736;2024-03-02T04:35:01;99694.63;;;7.58;100.00
79534;BME280;68982;52.160;6.736;2024-03-02T04:37:27;99696.69;;;7.56;100.00
79534;BME280;68982;52.160;6.736;2024-03-02T04:39:52;99695.63;;;7.50;100.00
79534;BME280;68982;52.160;6.736;2024-03-02T04:42:17;99691.88;;;7.44;100.00
79534;BME280;68982;52.160;6.736;2024-03-02T04:44:43;99696.03;;;7.47;100.00
79534;BME280;68982;52.160;6.736;2024-03-02T04:47:08;99700.56;;;7.46;100.00
79534;BME280;68982;52.160;6.736;2024-03-02T04:49:33;99700.19;;;7.50;100.00
79534;BME280;68982;52.160;6.736;2024-03-02T04:51:59;99711.31;;;7.53;100.00
79534;BME280;68982;52.160;6.736;2024-03-02T04:54:24;99709.88;;;7.51;100.00
79534;BME280;68982;52.160;6.736;2024-03-02T04:56:49;99716.88;;;7.45;100.00
79534;BME280;68982;52.160;6.736;2024-03-02T04:59:16;99719.34;;;7.46;100.00
79534;BME280;68982;52.160;6.736;2024-03-02T05:01:42;99719.91;;;7.42;100.00
79534;BME280;68982;52.160;6.736;2024-03-02T05:04:08;99720.28;;;7.32;100.00
79534;BME280;68982;52.160;6.736;2024-03-02T05:06:33;99714.66;;;7.27;100.00
79534;BME280;68982;52.160;6.736;2024-03-02T05:08:58;99729.91;;;7.26;100.00
79534;BME280;68982;52.160;6.736;2024-03-02T05:11:24;99729.91;;;7.26;100.00
79534;BME280;68982;52.160;6.736;2024-03-02T05:14:05;99731.25;;;7.16;100.00
79534;BME280;68982;52.160;6.736;2024-03-02T05:16:33;99734.91;;;7.08;100.00
79534;BME280;68982;52.160;6.736;2024-03-02T05:18:59;99742.25;;;6.99;100.00
79534;BME280;68982;52.160;6.736;2024-03-02T05:21:24;99743.66;;;6.95;100.00
79534;BME280;68982;52.160;6.736;2024-03-02T05:23:50;99755.41;;;6.94;100.00
79534;BME280;68982;52.160;6.736;2024-03-02T05:26:15;99746.84;;;6.84;100.00
79534;BME280;68982;52.160;6.736;2024-03-02T05:28:41;99749.16;;;6.87;100.00
79534;BME280;68982;52.160;6.736;2024-03-02T05:31:10;99744.28;;;6.76;100.00
79534;BME280;68982;52.160;6.736;2024-03-02T05:33:37;99743.84;;;6.72;100.00
79534;BME280;68982;52.160;6.736;2024-03-02T05:36:03;99747.28;;;6.66;100.00
79534;BME280;68982;52.160;6.736;2024-03-02T05:38:29;99752.19;;;6.62;100.00
79534;BME280;68982;52.160;6.736;2024-03-02T05:40:55;99744.91;;;6.56;100.00
79534;BME280;68982;52.160;6.736;2024-03-02T05:43:20;99754.72;;;6.49;100.00
79534;BME280;68982;52.160;6.736;2024-03-02T05:45:45;99749.81;;;6.53;100.00
79534;BME280;68982;52.160;6.736;2024-03-02T05:48:10;99752.16;;;6.41;100.00
79534;BME280;68982;52.160;6.736;2024-03-02T05:50:36;99745.03;;;6.48;100.00
79534;BME280;68982;52.160;6.736;2024-03-02T05:53:01;99754.44;;;6.44;100.00
79534;BME280;68982;52.160;6.736;2024-03-02T05:55:26;99764.25;;;6.37;100.00
79534;BME280;68982;52.160;6.736;2024-03-02T05:57:52;99764.56;;;6.27;100.00
79534;BME280;68982;52.160;6.736;2024-03-02T06:00:23;99761.25;;;6.25;100.00
79534;BME280;68982;52.160;6.736;2024-03-02T06:02:49;99762.34;;;6.16;100.00
79534;BME280;68982;52.160;6.736;2024-03-02T06:05:15;99763.28;;;6.08;100.00
79534;BME280;68982;52.160;6.736;2024-03-02T06:07:41;99764.94;;;6.09;100.00
79534;BME280;68982;52.160;6.736;2024-03-02T06:10:08;99772.13;;;6.09;100.00
79534;BME280;68982;52.160;6.736;2024-03-02T06:12:34;99766.41;;;6.12;100.00
79534;BME280;68982;52.160;6.736;2024-03-02T06:14:59;99771.31;;;6.08;100.00
79534;BME280;68982;52.160;6.736;2024-03-02T06:17:25;99776.81;;;6.07;100.00
79534;BME280;68982;52.160;6.736;2024-03-02T06:19:50;99773.88;;;6.01;100.00
79534;BME280;68982;52.160;6.736;2024-03-02T06:22:15;99781.19;;;6.08;100.00
79534;BME280;68982;52.160;6.736;2024-03-02T06:24:41;99787.34;;;6.08;100.00
79534;BME280;68982;52.160;6.736;2024-03-02T06:27:06;99798.63;;;6.18;100.00
79534;BME280;68982;52.160;6.736;2024-03-02T06:29:34;99791.81;;;6.16;100.00
79534;BME280;68982;52.160;6.736;2024-03-02T06:31:59;99798.25;;;6.21;100.00
79534;BME280;68982;52.160;6.736;2024-03-02T06:34:25;99795.19;;;6.25;100.00
79534;BME280;68982;52.160;6.736;2024-03-02T06:36:50;99802.59;;;6.22;100.00
79534;BME280;68982;52.160;6.736;2024-03-02T06:39:16;99806.38;;;6.28;100.00
79534;BME280;68982;52.160;6.736;2024-03-02T06:41:41;99803.31;;;6.31;100.00
79534;BME280;68982;52.160;6.736;2024-03-02T06:44:07;99795.41;;;6.23;100.00
79534;BME280;68982;52.160;6.736;2024-03-02T06:46:33;99805.63;;;6.19;100.00
79534;BME280;68982;52.160;6.736;2024-03-02T06:48:58;99801.00;;;6.13;100.00
79534;BME280;68982;52.160;6.736;2024-03-02T06:51:23;99800.00;;;6.14;100.00
79534;BME280;68982;52.160;6.736;2024-03-02T06:53:49;99794.47;;;6.16;100.00
79534;BME280;68982;52.160;6.736;2024-03-02T06:56:14;99798.16;;;6.15;100.00
79534;BME280;68982;52.160;6.736;2024-03-02T06:58:39;99807.31;;;6.20;100.00
79534;BME280;68982;52.160;6.736;2024-03-02T07:01:05;99805.81;;;6.18;100.00
79534;BME280;68982;52.160;6.736;2024-03-02T07:03:30;99799.44;;;6.19;100.00
79534;BME280;68982;52.160;6.736;2024-03-02T07:05:55;99808.88;;;6.15;100.00
79534;BME280;68982;52.160;6.736;2024-03-02T07:08:22;99811.06;;;6.11;100.00
79534;BME280;68982;52.160;6.736;2024-03-02T07:10:47;99816.63;;;6.10;100.00
79534;BME280;68982;52.160;6.736;2024-03-02T07:13:12;99806.25;;;6.07;100.00
79534;BME280;68982;52.160;6.736;2024-03-02T07:15:38;99816.88;;;6.15;100.00
79534;BME280;68982;52.160;6.736;2024-03-02T07:18:32;99811.72;;;6.13;100.00
79534;BME280;68982;52.160;6.736;2024-03-02T07:21:06;99823.63;;;6.11;100.00
79534;BME280;68982;52.160;6.736;2024-03-02T07:23:32;99826.50;;;6.09;100.00
79534;BME280;68982;52.160;6.736;2024-03-02T07:25:57;99841.53;;;6.10;100.00
79534;BME280;68982;52.160;6.736;2024-03-02T07:28:25;99832.13;;;6.14;100.00
79534;BME280;68982;52.160;6.736;2024-03-02T07:33:25;99834.50;;;6.24;100.00
79534;BME280;68982;52.160;6.736;2024-03-02T07:35:50;99836.47;;;6.30;100.00
79534;BME280;68982;52.160;6.736;2024-03-02T07:38:16;99848.72;;;6.39;100.00
79534;BME280;68982;52.160;6.736;2024-03-02T07:40:42;99846.16;;;6.46;100.00
79534;BME280;68982;52.160;6.736;2024-03-02T07:43:07;99843.72;;;6.51;100.00
79534;BME280;68982;52.160;6.736;2024-03-02T07:45:32;99853.53;;;6.59;100.00
79534;BME280;68982;52.160;6.736;2024-03-02T07:47:58;99862.56;;;6.58;100.00
79534;BME280;68982;52.160;6.736;2024-03-02T07:50:23;99848.69;;;6.69;100.00
79534;BME280;68982;52.160;6.736;2024-03-02T07:52:48;99848.41;;;6.79;100.00
79534;BME280;68982;52.160;6.736;2024-03-02T07:55:14;99852.00;;;6.86;100.00
79534;BME280;68982;52.160;6.736;2024-03-02T07:57:40;99846.59;;;7.01;100.00
79534;BME280;68982;52.160;6.736;2024-03-02T08:00:07;99855.50;;;7.23;100.00
79534;BME280;68982;52.160;6.736;2024-03-02T08:02:32;99862.13;;;7.48;100.00
79534;BME280;68982;52.160;6.736;2024-03-02T08:04:58;99868.31;;;7.71;100.00
79534;BME280;68982;52.160;6.736;2024-03-02T08:07:23;99875.06;;;7.88;100.00
79534;BME280;68982;52.160;6.736;2024-03-02T08:09:48;99872.94;;;8.05;100.00
79534;BME280;68982;52.160;6.736;2024-03-02T08:12:14;99875.34;;;8.28;100.00
79534;BME280;68982;52.160;6.736;2024-03-02T08:14:39;99878.72;;;8.37;100.00
79534;BME280;68982;52.160;6.736;2024-03-02T08:17:05;99887.25;;;8.47;100.00
79534;BME280;68982;52.160;6.736;2024-03-02T08:19:35;99885.47;;;8.54;100.00
79534;BME280;68982;52.160;6.736;2024-03-02T08:22:00;99891.13;;;8.73;100.00
79534;BME280;68982;52.160;6.736;2024-03-02T08:24:25;99891.03;;;8.94;99.61
79534;BME280;68982;52.160;6.736;2024-03-02T08:26:51;99884.91;;;9.27;97.15
79534;BME280;68982;52.160;6.736;2024-03-02T08:29:16;99884.13;;;9.60;95.89
79534;BME280;68982;52.160;6.736;2024-03-02T08:31:41;99878.56;;;10.01;92.92
79534;BME280;68982;52.160;6.736;2024-03-02T08:34:06;99886.44;;;9.89;92.88
79534;BME280;68982;52.160;6.736;2024-03-02T08:36:32;99887.28;;;9.83;93.53
79534;BME280;68982;52.160;6.736;2024-03-02T08:38:57;99881.06;;;9.69;92.87
79534;BME280;68982;52.160;6.736;2024-03-02T08:41:22;99887.28;;;9.90;93.01
79534;BME280;68982;52.160;6.736;2024-03-02T08:43:48;99887.66;;;9.73;93.22
79534;BME280;68982;52.160;6.736;2024-03-02T08:46:13;99895.94;;;9.59;93.74
79534;BME280;68982;52.160;6.736;2024-03-02T08:48:39;99898.66;;;9.65;94.15
79534;BME280;68982;52.160;6.736;2024-03-02T08:51:04;99901.38;;;9.85;92.61
79534;BME280;68982;52.160;6.736;2024-03-02T08:53:32;99908.00;;;9.76;92.65
79534;BME280;68982;52.160;6.736;2024-03-02T08:55:58;99894.91;;;9.66;93.60
79534;BME280;68982;52.160;6.736;2024-03-02T08:58:23;99898.88;;;9.84;92.33
79534;BME280;68982;52.160;6.736;2024-03-02T09:00:49;99891.22;;;10.01;93.40
79534;BME280;68982;52.160;6.736;2024-03-02T09:03:14;99897.41;;;10.21;90.71
79534;BME280;68982;52.160;6.736;2024-03-02T09:05:40;99905.88;;;10.11;89.94
79534;BME280;68982;52.160;6.736;2024-03-02T09:08:05;99901.34;;;10.12;90.21
79534;BME280;68982;52.160;6.736;2024-03-02T09:10:31;99886.22;;;10.17;90.94
79534;BME280;68982;52.160;6.736;2024-03-02T09:12:56;99887.66;;;10.27;90.79
79534;BME280;68982;52.160;6.736;2024-03-02T09:15:22;99899.94;;;10.29;91.44
79534;BME280;68982;52.160;6.736;2024-03-02T09:17:47;99901.97;;;10.14;90.96
79534;BME280;68982;52.160;6.736;2024-03-02T09:20:12;99906.94;;;10.44;92.09
79534;BME280;68982;52.160;6.736;2024-03-02T09:22:39;99900.31;;;10.40;90.24
79534;BME280;68982;52.160;6.736;2024-03-02T09:25:04;99897.53;;;10.66;89.09
79534;BME280;68982;52.160;6.736;2024-03-02T09:27:29;99898.91;;;10.89;88.86
79534;BME280;68982;52.160;6.736;2024-03-02T09:29:55;99899.63;;;11.16;86.60
79534;BME280;68982;52.160;6.736;2024-03-02T09:32:20;99899.50;;;11.36;84.76
79534;BME280;68982;52.160;6.736;2024-03-02T09:34:45;99899.22;;;11.51;83.47
79534;BME280;68982;52.160;6.736;2024-03-02T09:37:13;99908.47;;;11.36;83.58
79534;BME280;68982;52.160;6.736;2024-03-02T09:39:38;99910.38;;;11.23;83.24
79534;BME280;68982;52.160;6.736;2024-03-02T09:42:04;99905.25;;;11.14;84.19
79534;BME280;68982;52.160;6.736;2024-03-02T09:44:29;99906.81;;;11.67;82.10
79534;BME280;68982;52.160;6.736;2024-03-02T09:46:55;99904.13;;;11.29;81.16
79534;BME280;68982;52.160;6.736;2024-03-02T09:49:21;99907.03;;;11.66;81.15
79534;BME280;68982;52.160;6.736;2024-03-02T09:51:49;99910.56;;;12.23;79.54
79534;BME280;68982;52.160;6.736;2024-03-02T09:54:17;99920.78;;;11.57;79.24
79534;BME280;68982;52.160;6.736;2024-03-02T09:56:44;99921.88;;;11.05;77.64
79534;BME280;68982;52.160;6.736;2024-03-02T09:59:09;99916.78;;;11.35;78.40
79534;BME280;68982;52.160;6.736;2024-03-02T10:01:35;99916.97;;;12.03;74.03
79534;BME280;68982;52.160;6.736;2024-03-02T10:04:00;99919.59;;;12.54;74.03
79534;BME280;68982;52.160;6.736;2024-03-02T10:06:28;99911.59;;;12.84;70.69
79534;BME280;68982;52.160;6.736;2024-03-02T10:08:54;99920.81;;;12.95;69.12
79534;BME280;68982;52.160;6.736;2024-03-02T10:11:33;99913.22;;;13.03;69.77
79534;BME280;68982;52.160;6.736;2024-03-02T10:14:04;99909.63;;;13.10;69.02
79534;BME280;68982;52.160;6.736;2024-03-02T10:16:33;99921.63;;;13.14;68.29
79534;BME280;68982;52.160;6.736;2024-03-02T10:19:15;99915.97;;;13.34;67.25
79534;BME280;68982;52.160;6.736;2024-03-02T10:21:41;99910.94;;;13.67;65.41
79534;BME280;68982;52.160;6.736;2024-03-02T10:24:07;99904.50;;;13.92;65.23
79534;BME280;68982;52.160;6.736;2024-03-02T10:26:32;99911.84;;;13.61;64.04
79534;BME280;68982;52.160;6.736;2024-03-02T10:28:58;99900.84;;;13.44;66.70
79534;BME280;68982;52.160;6.736;2024-03-02T10:31:25;99907.66;;;12.43;69.96
79534;BME280;68982;52.160;6.736;2024-03-02T10:33:54;99901.69;;;13.26;68.10
79534;BME280;68982;52.160;6.736;2024-03-02T10:36:20;99895.13;;;13.64;67.21
79534;BME280;68982;52.160;6.736;2024-03-02T10:38:46;99902.91;;;13.61;65.69
79534;BME280;68982;52.160;6.736;2024-03-02T10:41:16;99900.06;;;14.09;64.47
79534;BME280;68982;52.160;6.736;2024-03-02T10:43:43;99892.50;;;14.23;62.76
79534;BME280;68982;52.160;6.736;2024-03-02T10:46:10;99890.59;;;13.88;63.56
79534;BME280;68982;52.160;6.736;2024-03-02T10:48:39;99901.41;;;13.77;63.92
79534;BME280;68982;52.160;6.736;2024-03-02T10:51:05;99892.13;;;14.67;59.13
79534;BME280;68982;52.160;6.736;2024-03-02T10:53:30;99891.41;;;14.83;59.36
79534;BME280;68982;52.160;6.736;2024-03-02T10:55:57;99888.84;;;15.17;59.76
79534;BME280;68982;52.160;6.736;2024-03-02T10:58:32;99895.84;;;15.59;56.54
79534;BME280;68982;52.160;6.736;2024-03-02T11:01:01;99885.56;;;15.61;57.99
79534;BME280;68982;52.160;6.736;2024-03-02T11:03:29;99887.16;;;15.45;58.14
79534;BME280;68982;52.160;6.736;2024-03-02T11:05:55;99886.38;;;15.61;56.46
79534;BME280;68982;52.160;6.736;2024-03-02T11:08:23;99892.59;;;15.45;55.21
79534;BME280;68982;52.160;6.736;2024-03-02T11:10:52;99886.91;;;14.89;56.98
79534;BME280;68982;52.160;6.736;2024-03-02T11:13:27;99901.28;;;14.89;56.90
79534;BME280;68982;52.160;6.736;2024-03-02T11:15:59;99897.66;;;15.24;56.18
79534;BME280;68982;52.160;6.736;2024-03-02T11:18:29;99885.41;;;15.67;55.00
79534;BME280;68982;52.160;6.736;2024-03-02T11:20:55;99894.78;;;16.05;54.90
79534;BME280;68982;52.160;6.736;2024-03-02T11:23:32;99897.72;;;15.87;55.76
79534;BME280;68982;52.160;6.736;2024-03-02T11:26:20;99893.94;;;16.05;55.24
79534;BME280;68982;52.160;6.736;2024-03-02T11:28:46;99895.22;;;16.36;54.49
79534;BME280;68982;52.160;6.736;2024-03-02T11:31:12;99892.34;;;16.82;53.36
79534;BME280;68982;52.160;6.736;2024-03-02T11:33:38;99886.16;;;16.69;53.05
79534;BME280;68982;52.160;6.736;2024-03-02T11:36:06;99883.91;;;16.44;54.52
79534;BME280;68982;52.160;6.736;2024-03-02T11:38:32;99878.13;;;16.96;52.71
79534;BME280;68982;52.160;6.736;2024-03-02T11:41:02;99875.94;;;16.76;52.26
79534;BME280;68982;52.160;6.736;2024-03-02T11:43:30;99871.34;;;16.60;53.06
79534;BME280;68982;52.160;6.736;2024-03-02T11:46:04;99877.09;;;16.42;52.71
79534;BME280;68982;52.160;6.736;2024-03-02T11:48:32;99873.63;;;16.85;51.47
79534;BME280;68982;52.160;6.736;2024-03-02T11:50:59;99875.75;;;17.05;50.50
79534;BME280;68982;52.160;6.736;2024-03-02T11:53:26;99877.72;;;16.49;51.54
79534;BME280;68982;52.160;6.736;2024-03-02T11:55:55;99870.66;;;16.48;51.59
79534;BME280;68982;52.160;6.736;2024-03-02T11:58:20;99865.53;;;17.17;50.70
79534;BME280;68982;52.160;6.736;2024-03-02T12:00:51;99852.13;;;17.97;49.36
79534;BME280;68982;52.160;6.736;2024-03-02T12:03:16;99852.34;;;18.33;46.84
79534;BME280;68982;52.160;6.736;2024-03-02T12:05:42;99852.69;;;17.40;47.65
79534;BME280;68982;52.160;6.736;2024-03-02T12:08:08;99848.88;;;17.14;48.77
79534;BME280;68982;52.160;6.736;2024-03-02T12:10:35;99848.13;;;16.52;50.92
79534;BME280;68982;52.160;6.736;2024-03-02T12:13:05;99836.16;;;17.52;47.81
79534;BME280;68982;52.160;6.736;2024-03-02T12:15:38;99843.31;;;16.60;48.18
79534;BME280;68982;52.160;6.736;2024-03-02T12:18:04;99843.28;;;16.98;48.47
79534;BME280;68982;52.160;6.736;2024-03-02T12:20:31;99835.41;;;17.02;48.79
79534;BME280;68982;52.160;6.736;2024-03-02T12:23:02;99836.50;;;17.28;46.85
79534;BME280;68982;52.160;6.736;2024-03-02T12:25:28;99841.28;;;16.11;51.86
79534;BME280;68982;52.160;6.736;2024-03-02T12:27:56;99826.56;;;15.27;54.09
79534;BME280;68982;52.160;6.736;2024-03-02T12:30:22;99831.69;;;15.41;53.70
79534;BME280;68982;52.160;6.736;2024-03-02T12:32:48;99842.44;;;16.15;53.00
79534;BME280;68982;52.160;6.736;2024-03-02T12:35:14;99830.28;;;17.33;49.00
79534;BME280;68982;52.160;6.736;2024-03-02T12:37:49;99833.97;;;16.94;50.50
79534;BME280;68982;52.160;6.736;2024-03-02T12:40:16;99834.69;;;16.46;50.49
79534;BME280;68982;52.160;6.736;2024-03-02T12:42:44;99832.03;;;16.73;49.44
79534;BME280;68982;52.160;6.736;2024-03-02T12:45:10;99828.94;;;16.42;48.96
79534;BME280;68982;52.160;6.736;2024-03-02T12:47:36;99825.81;;;16.94;49.10
79534;BME280;68982;52.160;6.736;2024-03-02T12:50:03;99822.09;;;17.65;46.67
79534;BME280;68982;52.160;6.736;2024-03-02T12:52:29;99821.75;;;17.84;47.16
79534;BME280;68982;52.160;6.736;2024-03-02T12:54:56;99822.25;;;17.48;46.05
79534;BME280;68982;52.160;6.736;2024-03-02T12:57:28;99816.03;;;17.53;46.03
79534;BME280;68982;52.160;6.736;2024-03-02T13:00:14;99822.31;;;18.23;45.11
79534;BME280;68982;52.160;6.736;2024-03-02T13:02:40;99825.41;;;18.47;45.93